KHZL

Hazleton Regional Airport

Hazleton, Pennsylvania, USA
METAR KHZL 141656Z AUTO 15006G14KT 1/4SM FG OVC003 05/04 A3033 RMK AO2
Observed Flight Rules
Dec-14 @ 16:56 UTC (6 minutes ago) Instrument Flight Rules
Wind Visibility Clouds Conditions
150° at 6 knots
 Gusting to 14 knots
1/4 miles
  • Overcast at 300' AGL
  • Fog
Temperatures Readings
Current 5°C / 41°F
Dewpoint 4°C / 39°F
Humidity 93%
Altimeter 30.33" Hg
Pressure 1027 hPa
Elevation 489
METAR KHZL 141656Z AUTO 15006G14KT 1/4SM FG OVC003 05/04 A3033 RMK AO2
Observed Flight Rules
Dec-14 @ 16:56 UTC
(6 minutes ago)
LIFR
Wind Visibility
150° at 6 knots
 Gusting to 14 knots
1/4 miles
Clouds
  • Overcast at 300' AGL
Conditions
  • Fog
Temperature Dewpoint
5°C / 41°F 4°C / 39°F
Humidity Altimeter Pressure
93% 30.33" Hg 1027 hPa